Terminal Aerodrome Forecast
Issued by NWS

Home | Current Version | Previous Version | Text Only | Print | Product List | Glossary On
Versions: 1 2 3 4 5 6 7 8 9 10 11 12
000
FTUS41 KCAR 221100 RRA
TAFFVE
TAF
KFVE 221151Z 2212/2312 VRB03KT P6SM SKC
     FM221300 23007KT P6SM SKC
     FM221700 24010G20KT P6SM SCT120
     FM230000 24007KT P6SM SKC=

USA.gov is the U.S. government's official web portal to all federal, state and local government web resources and services.